createdAt,value
2022-09-15T00:20:43.752Z,99082.91
2022-09-15T00:23:11.507Z,99082.56
2022-09-15T01:13:58.798Z,99022.69
2022-09-15T01:16:31.242Z,99031.88
2022-09-15T01:19:16.396Z,99027.70
2022-09-15T01:21:54.641Z,99026.41
2022-09-15T01:24:36.679Z,99021.48
2022-09-15T01:30:59.827Z,99026.29
2022-09-15T01:33:26.317Z,99023.40
2022-09-15T03:21:55.489Z,98962.02
2022-09-15T03:24:25.754Z,98961.54
2022-09-15T03:27:03.613Z,98961.05
2022-09-15T03:29:37.453Z,98950.95
2022-09-15T03:32:29.163Z,98948.34
2022-09-15T03:35:10.051Z,98947.86
2022-09-15T03:38:01.109Z,98951.89
2022-09-15T03:40:30.265Z,98957.35
2022-09-15T03:43:05.076Z,98964.10
2022-09-15T03:46:06.151Z,98970.18
2022-09-15T03:48:39.466Z,98979.12
2022-09-15T03:51:13.578Z,98987.72
2022-09-15T03:53:45.500Z,98993.59
2022-09-15T03:56:25.876Z,99001.72
2022-09-15T03:58:56.790Z,99004.09
2022-09-15T04:01:28.345Z,99007.01
2022-09-15T04:03:55.862Z,99000.63
2022-09-15T04:06:29.814Z,99003.76
2022-09-15T04:09:02.631Z,99006.65
2022-09-15T04:11:37.173Z,99010.16
2022-09-15T04:14:32.427Z,99013.05
2022-09-15T04:17:01.598Z,99013.52
2022-09-15T04:19:34.958Z,99011.53
2022-09-15T04:22:17.014Z,99018.97
2022-09-15T04:24:56.655Z,99021.72
2022-09-15T04:27:28.650Z,99022.72
2022-09-15T04:30:01.818Z,99025.75
2022-09-15T04:32:35.339Z,99029.09
2022-09-15T04:35:06.181Z,99036.63
2022-09-15T04:37:34.456Z,99044.96
2022-09-15T04:40:13.609Z,99043.34
2022-09-15T04:42:42.785Z,99043.58
2022-09-15T04:45:19.278Z,99046.65
2022-09-15T04:47:52.843Z,99057.54
2022-09-15T04:50:22.236Z,99051.17
2022-09-15T04:52:54.640Z,99048.60
2022-09-15T04:55:26.921Z,99057.09
2022-09-15T04:57:59.795Z,99058.53
2022-09-15T05:00:26.640Z,99054.84
2022-09-15T05:02:54.594Z,99056.88
2022-09-15T05:05:24.934Z,99055.91
2022-09-15T05:07:53.354Z,99056.42
2022-09-15T05:10:32.641Z,99052.70
2022-09-15T05:13:04.095Z,99052.33
2022-09-15T05:15:31.309Z,99050.20
2022-09-15T05:18:01.188Z,99047.20
2022-09-15T05:20:31.012Z,99050.59
2022-09-15T05:22:57.670Z,99055.11
2022-09-15T05:25:27.713Z,99052.61
2022-09-15T05:28:00.305Z,99052.20
2022-09-15T05:30:38.605Z,99056.59
2022-09-15T05:33:09.250Z,99064.23
2022-09-15T05:35:36.557Z,99067.08
2022-09-15T05:38:03.201Z,99069.86
2022-09-15T05:40:30.269Z,99069.27
2022-09-15T05:43:00.027Z,99067.45
2022-09-15T05:45:26.749Z,99066.08
2022-09-15T05:47:55.685Z,99068.09
2022-09-15T05:50:25.993Z,99073.05
2022-09-15T05:52:53.872Z,99071.92
2022-09-15T05:55:20.778Z,99070.29
2022-09-15T05:57:48.366Z,99071.52
2022-09-15T06:00:15.333Z,99082.13
2022-09-15T06:02:42.749Z,99091.59
2022-09-15T06:05:37.267Z,99104.56
2022-09-15T06:08:05.480Z,99115.70
2022-09-15T06:10:36.034Z,99112.09
2022-09-15T06:13:06.801Z,99111.60
2022-09-15T06:15:58.104Z,99111.33
2022-09-15T06:18:26.420Z,99110.84
2022-09-15T06:20:54.825Z,99119.40
2022-09-15T06:23:50.542Z,99128.72
2022-09-15T06:26:18.405Z,99142.50
2022-09-15T06:38:42.408Z,99149.63
2022-09-15T06:45:15.125Z,99152.99
2022-09-15T06:47:41.774Z,99156.02
2022-09-15T06:50:33.839Z,99155.91
2022-09-15T07:00:39.690Z,99171.81
2022-09-15T07:03:10.166Z,99172.59
2022-09-15T07:05:46.241Z,99180.12
2022-09-15T07:08:13.560Z,99198.33
2022-09-15T07:10:45.909Z,99202.77
2022-09-15T07:13:16.496Z,99205.34
2022-09-15T07:15:52.221Z,99210.58
2022-09-15T07:18:22.520Z,99218.94
2022-09-15T07:20:49.974Z,99220.38
2022-09-15T07:23:19.980Z,99224.41
2022-09-15T07:26:36.945Z,99226.04
2022-09-15T07:29:04.996Z,99222.73
2022-09-15T07:31:32.358Z,99227.27
2022-09-15T07:34:24.136Z,99227.55
2022-09-15T07:36:51.245Z,99226.13
2022-09-15T07:39:18.131Z,99229.52
2022-09-15T07:42:10.255Z,99227.54
2022-09-15T07:44:38.034Z,99224.06
2022-09-15T07:47:08.665Z,99221.76
2022-09-15T07:49:35.446Z,99218.16
2022-09-15T07:52:52.068Z,99227.48
2022-09-15T07:55:19.301Z,99238.62
2022-09-15T07:58:03.305Z,99244.41
2022-09-15T08:00:35.092Z,99241.27
2022-09-15T08:03:07.530Z,99239.98
2022-09-15T08:05:46.063Z,99250.84
2022-09-15T08:08:16.027Z,99253.18
2022-09-15T08:10:47.449Z,99256.55
2022-09-15T08:13:28.217Z,99249.58
2022-09-15T08:16:16.731Z,99244.46
2022-09-15T08:19:09.757Z,99246.73
2022-09-15T08:21:40.268Z,99249.88
2022-09-15T08:24:18.167Z,99250.97
2022-09-15T08:26:58.015Z,99250.21
2022-09-15T08:29:29.915Z,99246.36
2022-09-15T08:32:12.510Z,99248.30
2022-09-15T08:34:49.403Z,99251.60
2022-09-15T08:37:21.650Z,99247.65
2022-09-15T08:39:56.191Z,99249.02
2022-09-15T08:42:30.142Z,99238.31
2022-09-15T08:45:22.327Z,99238.83
2022-09-15T08:47:58.225Z,99226.65
2022-09-15T08:50:51.657Z,99228.43
2022-09-15T08:53:45.130Z,99229.20
2022-09-15T08:56:17.704Z,99236.36
2022-09-15T08:59:15.590Z,99238.02
2022-09-15T09:02:19.436Z,99233.58
2022-09-15T09:05:04.055Z,99236.65
2022-09-15T09:07:57.410Z,99236.90
2022-09-15T09:10:30.342Z,99239.64
2022-09-15T09:13:02.923Z,99239.31
2022-09-15T09:15:47.973Z,99235.00
2022-09-15T09:18:35.550Z,99236.04
2022-09-15T09:21:13.659Z,99240.94
2022-09-15T09:24:07.675Z,99239.48
2022-09-15T09:26:38.844Z,99237.18
2022-09-15T09:29:37.532Z,99236.48
2022-09-15T09:32:22.249Z,99241.48
2022-09-15T09:34:57.513Z,99239.31
2022-09-15T09:37:24.800Z,99229.75
2022-09-15T09:39:52.643Z,99214.65
2022-09-15T09:42:21.813Z,99209.88
2022-09-15T09:44:48.474Z,99203.25
2022-09-15T10:05:18.903Z,99195.25
2022-09-15T10:07:48.926Z,99192.83
2022-09-15T10:10:23.573Z,99194.97
2022-09-15T10:12:56.720Z,99184.81
2022-09-15T10:15:26.505Z,99182.29
2022-09-15T10:17:56.324Z,99175.06
2022-09-15T10:20:23.942Z,99168.04
2022-09-15T10:22:51.145Z,99162.26
2022-09-15T11:05:38.624Z,99126.44
2022-09-15T11:13:02.143Z,99119.98
2022-09-15T11:15:31.717Z,99122.79
2022-09-15T11:17:58.302Z,99120.06
2022-09-15T11:20:34.319Z,99121.86
2022-09-15T11:23:13.314Z,99124.95
2022-09-15T11:25:45.210Z,99120.34
2022-09-15T11:28:11.945Z,99120.92
2022-09-15T11:30:47.754Z,99124.40
2022-09-15T11:33:21.952Z,99137.24
2022-09-15T11:35:48.609Z,99145.45
2022-09-15T11:38:18.123Z,99139.07
2022-09-15T11:40:57.544Z,99137.89
2022-09-15T11:43:56.982Z,99131.09
2022-09-15T11:46:35.342Z,99129.70
2022-09-15T11:49:11.127Z,99120.67
2022-09-15T11:51:48.163Z,99116.20
2022-09-15T11:54:26.035Z,99114.85
2022-09-15T11:56:55.945Z,99117.87
2022-09-15T11:59:29.356Z,99115.84
2022-09-15T12:02:11.106Z,99110.13
2022-09-15T12:04:44.568Z,99108.13
2022-09-15T12:07:13.789Z,99108.77
2022-09-15T12:09:41.223Z,99108.42
2022-09-15T12:12:16.053Z,99104.75
2022-09-15T12:14:43.885Z,99101.98
2022-09-15T12:17:28.871Z,99095.17
2022-09-15T12:20:00.856Z,99098.11
2022-09-15T12:22:39.478Z,99093.45
2022-09-15T12:25:26.126Z,99096.71
2022-09-15T12:28:14.014Z,99091.73
2022-09-15T12:30:41.215Z,99088.14
2022-09-15T12:33:31.080Z,99087.42
2022-09-15T12:36:18.036Z,99084.58
2022-09-15T12:38:48.660Z,99092.48
2022-09-15T12:41:18.469Z,99091.63
2022-09-15T12:43:55.449Z,99087.37
2022-09-15T12:46:22.299Z,99084.09
2022-09-15T12:48:50.451Z,99078.55
2022-09-15T12:51:22.367Z,99069.76
2022-09-15T12:53:52.203Z,99068.05
2022-09-15T12:56:24.377Z,99072.66
2022-09-15T12:58:51.675Z,99070.79
2022-09-15T13:01:18.803Z,99061.88
2022-09-15T13:03:45.750Z,99058.66
2022-09-15T13:06:18.629Z,99053.10
2022-09-15T13:09:08.472Z,99055.34
2022-09-15T13:14:16.091Z,99071.60
2022-09-15T13:16:46.294Z,99068.71
2022-09-15T13:19:36.488Z,99060.59
2022-09-15T13:22:06.123Z,99057.11
2022-09-15T13:24:51.376Z,99053.30
2022-09-15T13:31:52.843Z,99040.32
2022-09-15T13:40:35.746Z,99018.23
2022-09-15T13:43:25.825Z,99012.86
2022-09-15T13:45:58.254Z,99014.05
2022-09-15T13:48:50.275Z,99016.67
2022-09-15T13:51:24.552Z,99012.30
2022-09-15T13:53:56.768Z,99000.44
2022-09-15T13:56:32.282Z,98999.29
2022-09-15T13:59:10.129Z,99000.29
2022-09-15T14:01:43.505Z,98993.44
2022-09-15T14:04:16.092Z,98983.31
2022-09-15T14:06:44.961Z,98979.09
2022-09-15T14:09:32.784Z,98981.23
2022-09-15T14:12:04.473Z,98982.82
2022-09-15T14:14:38.343Z,98980.11
2022-09-15T14:17:19.229Z,98975.65
2022-09-15T14:19:54.710Z,98969.30
2022-09-15T14:25:16.546Z,98954.08
2022-09-15T14:27:44.568Z,98941.65
2022-09-15T14:30:32.565Z,98933.77
2022-09-15T14:33:01.620Z,98931.80
2022-09-15T14:35:33.287Z,98940.51
2022-09-15T14:37:59.896Z,98955.95
2022-09-15T14:40:29.532Z,98966.37
2022-09-15T14:42:57.409Z,98960.19
2022-09-15T14:48:30.212Z,98945.48
2022-09-15T14:51:01.988Z,98942.03
2022-09-15T14:53:34.487Z,98934.77
2022-09-15T14:56:08.478Z,98921.45
2022-09-15T14:58:38.463Z,98916.35
2022-09-15T15:01:23.663Z,98907.86
2022-09-15T15:04:01.751Z,98906.52
2022-09-15T15:06:36.796Z,98907.19
2022-09-15T15:09:06.786Z,98913.96
2022-09-15T15:11:34.347Z,98907.15
2022-09-15T15:14:10.915Z,98903.28
2022-09-15T15:16:48.814Z,98895.58
2022-09-15T15:19:33.892Z,98894.34
2022-09-15T15:22:12.439Z,98897.23
2022-09-15T15:24:42.839Z,98903.20
2022-09-15T15:27:29.445Z,98906.34
2022-09-15T15:29:56.222Z,98911.23
2022-09-15T15:32:32.832Z,98909.20
2022-09-15T15:35:07.454Z,98915.50
2022-09-15T15:37:34.600Z,98914.06
2022-09-15T15:40:04.553Z,98909.29
2022-09-15T15:42:31.350Z,98903.95
2022-09-15T15:45:16.514Z,98891.95
2022-09-15T15:47:43.224Z,98884.02
2022-09-15T15:50:13.959Z,98881.45
2022-09-15T15:52:41.330Z,98880.48
2022-09-15T15:55:12.670Z,98888.50
2022-09-15T15:57:42.315Z,98886.38
2022-09-15T16:00:23.865Z,98880.92
2022-09-15T16:02:50.889Z,98876.23
2022-09-15T16:05:21.573Z,98870.88
2022-09-15T16:07:50.209Z,98870.11
2022-09-15T16:10:18.574Z,98871.21
2022-09-15T16:12:50.142Z,98869.02
2022-09-15T16:15:18.391Z,98874.49
2022-09-15T16:17:47.228Z,98888.76
2022-09-15T16:20:24.472Z,98901.25
2022-09-15T16:23:16.370Z,98876.15
2022-09-15T16:25:54.688Z,98853.73
2022-09-15T16:28:21.326Z,98881.35
2022-09-15T16:30:47.844Z,98882.68
2022-09-15T16:33:15.164Z,98887.98
2022-09-15T16:35:50.341Z,98896.48
2022-09-15T16:44:24.729Z,98905.86
2022-09-15T16:46:51.384Z,98905.27
2022-09-15T16:49:18.116Z,98901.36
2022-09-15T16:51:50.766Z,98901.98
2022-09-15T16:54:19.286Z,98903.51
2022-09-15T16:56:46.029Z,98901.14
2022-09-15T16:59:37.502Z,98894.84
2022-09-15T17:02:29.429Z,98904.30
2022-09-15T17:04:56.850Z,98900.41
2022-09-15T17:07:58.395Z,98899.43
2022-09-15T17:10:27.968Z,98894.30
2022-09-15T17:12:58.036Z,98882.84
2022-09-15T17:15:27.406Z,98873.05
2022-09-15T17:18:19.369Z,98870.95
2022-09-15T17:20:46.668Z,98871.98
2022-09-15T17:26:31.499Z,98878.64
2022-09-15T17:28:58.353Z,98875.35
2022-09-15T17:31:25.195Z,98874.06
2022-09-15T17:33:54.960Z,98879.56
2022-09-15T17:44:56.664Z,98885.98
2022-09-15T17:47:23.285Z,98888.33
2022-09-15T17:49:49.836Z,98881.59
2022-09-15T17:52:19.506Z,98884.59
2022-09-15T17:58:53.256Z,98890.64
2022-09-15T18:01:20.075Z,98885.66
2022-09-15T18:04:11.899Z,98881.29
2022-09-15T18:06:41.188Z,98880.04
2022-09-15T18:09:36.265Z,98878.04
2022-09-15T18:21:22.930Z,98888.81
2022-09-15T18:23:49.699Z,98889.88
2022-09-15T18:26:16.186Z,98906.92
2022-09-15T18:28:42.899Z,98912.41
2022-09-15T18:31:12.045Z,98922.97
2022-09-15T18:33:38.920Z,98940.46
2022-09-15T18:36:06.236Z,98949.14
2022-09-15T18:38:33.272Z,98948.73
2022-09-15T18:41:03.193Z,98946.80
2022-09-15T18:43:29.998Z,98938.16
2022-09-15T18:46:25.859Z,98933.94
2022-09-15T18:48:53.118Z,98929.20
2022-09-15T18:51:24.401Z,98928.93
2022-09-15T18:54:01.440Z,98927.69
2022-09-15T18:56:53.132Z,98929.09
2022-09-15T19:03:44.461Z,98924.34
2022-09-15T19:24:47.075Z,98931.58
2022-09-15T19:27:13.666Z,98928.52
2022-09-15T19:29:43.174Z,98924.87
2022-09-15T19:32:10.985Z,98925.65
2022-09-15T19:34:38.593Z,98919.13
2022-09-15T19:37:10.690Z,98922.81
2022-09-15T19:43:57.049Z,98928.20
2022-09-15T19:46:24.300Z,98933.89
2022-09-15T19:48:51.765Z,98929.64
2022-09-15T19:51:21.971Z,98928.29
2022-09-15T19:53:52.943Z,98930.95
2022-09-15T19:56:25.654Z,98931.84
2022-09-15T19:58:55.119Z,98929.85
2022-09-15T20:01:30.971Z,98930.44
2022-09-15T20:03:58.897Z,98933.34
2022-09-15T20:06:31.672Z,98932.25
2022-09-15T20:08:59.639Z,98926.41
2022-09-15T20:11:37.817Z,98924.28
2022-09-15T20:14:18.311Z,98920.16
2022-09-15T20:16:49.567Z,98916.06
2022-09-15T20:19:27.536Z,98914.21
2022-09-15T20:22:30.021Z,98914.17
2022-09-15T20:24:57.511Z,98916.19
2022-09-15T20:27:27.220Z,98917.96
2022-09-15T20:29:56.360Z,98919.27
2022-09-15T20:32:28.686Z,98923.16
2022-09-15T20:35:02.452Z,98922.98
2022-09-15T20:37:31.238Z,98925.23
2022-09-15T20:40:02.366Z,98927.47
2022-09-15T20:42:29.178Z,98928.84
2022-09-15T20:44:55.764Z,98933.22
2022-09-15T20:47:30.937Z,98935.59
2022-09-15T20:49:57.567Z,98941.84
2022-09-15T20:52:27.975Z,98947.52
2022-09-15T20:54:56.600Z,98946.67
2022-09-15T20:57:34.788Z,98948.77
2022-09-15T21:00:02.127Z,98944.70
2022-09-15T21:02:28.775Z,98948.02
2022-09-15T21:04:55.329Z,98948.83
2022-09-15T21:07:21.953Z,98945.80
2022-09-15T21:09:48.528Z,98941.96
2022-09-15T21:12:15.636Z,98939.09
2022-09-15T21:14:42.778Z,98945.81
2022-09-15T21:17:10.591Z,98956.30
2022-09-15T21:19:37.432Z,98961.28
2022-09-15T21:22:04.112Z,98964.19
2022-09-15T21:24:30.792Z,98964.34
2022-09-15T21:27:15.743Z,98964.06
2022-09-15T21:29:42.619Z,98960.66
2022-09-15T21:32:09.283Z,98962.44
2022-09-15T21:34:35.985Z,98964.69
2022-09-15T21:37:02.532Z,98967.78
2022-09-15T21:39:29.184Z,98970.37
2022-09-15T21:41:55.872Z,98972.28
2022-09-15T21:44:22.668Z,98975.15
2022-09-15T21:46:49.469Z,98974.88
2022-09-15T21:49:26.370Z,98980.43
2022-09-15T21:52:07.736Z,98985.52
2022-09-15T21:54:39.751Z,98985.05
2022-09-15T21:57:09.628Z,98983.23
2022-09-15T21:59:36.602Z,98993.17
2022-09-15T22:02:07.023Z,98994.90
2022-09-15T22:04:37.591Z,98996.29
2022-09-15T22:07:14.002Z,98994.13
2022-09-15T22:09:42.219Z,98992.91
2022-09-15T22:12:12.668Z,98998.63
2022-09-15T22:14:45.906Z,98996.16
2022-09-15T22:17:13.419Z,99001.42
2022-09-15T22:19:40.225Z,99003.44
2022-09-15T22:22:09.455Z,99007.29
2022-09-15T22:24:36.252Z,99010.97
2022-09-15T22:27:03.117Z,99012.42
2022-09-15T22:29:29.925Z,99010.83
2022-09-15T22:42:54.856Z,99008.66
2022-09-15T22:45:54.522Z,99012.70
2022-09-15T23:40:29.261Z,99079.52
2022-09-15T23:43:01.900Z,99080.82
2022-09-15T23:46:02.753Z,99081.90
